createdAt,value
2018-11-04T00:01:57.649Z,11.70
2018-11-04T00:04:26.716Z,9.93
2018-11-04T00:06:55.845Z,11.40
2018-11-04T00:09:25.161Z,10.93
2018-11-04T00:11:54.267Z,11.03
2018-11-04T00:14:23.349Z,10.90
2018-11-04T00:16:52.579Z,10.38
2018-11-04T00:19:21.744Z,10.93
2018-11-04T00:21:50.822Z,10.93
2018-11-04T00:24:20.297Z,11.33
2018-11-04T00:26:49.489Z,11.57
2018-11-04T00:29:18.570Z,10.83
2018-11-04T00:31:47.639Z,10.87
2018-11-04T00:34:16.802Z,10.83
2018-11-04T00:36:45.897Z,10.67
2018-11-04T00:39:15.056Z,11.43
2018-11-04T00:41:44.264Z,11.00
2018-11-04T00:44:13.460Z,10.53
2018-11-04T00:46:42.541Z,11.43
2018-11-04T00:49:11.749Z,12.97
2018-11-04T00:51:40.917Z,11.40
2018-11-04T00:54:10.701Z,12.23
2018-11-04T00:56:39.857Z,11.63
2018-11-04T00:59:09.472Z,12.85
2018-11-04T01:01:39.653Z,11.33
2018-11-04T01:04:08.700Z,13.07
2018-11-04T01:06:37.832Z,13.10
2018-11-04T01:09:09.269Z,12.90
2018-11-04T01:11:38.526Z,12.80
2018-11-04T01:14:07.596Z,13.10
2018-11-04T01:16:36.680Z,12.00
2018-11-04T01:19:05.797Z,12.37
2018-11-04T01:21:34.940Z,12.03
2018-11-04T01:24:04.016Z,12.18
2018-11-04T01:26:33.175Z,12.47
2018-11-04T01:29:02.289Z,13.27
2018-11-04T01:31:31.413Z,13.33
2018-11-04T01:34:00.476Z,13.63
2018-11-04T01:36:29.633Z,13.73
2018-11-04T01:38:58.740Z,14.33
2018-11-04T01:41:28.871Z,14.33
2018-11-04T01:43:57.936Z,12.83
2018-11-04T01:46:27.448Z,14.23
2018-11-04T01:48:56.453Z,14.57
2018-11-04T01:51:25.482Z,14.95
2018-11-04T01:53:54.575Z,13.90
2018-11-04T01:56:23.661Z,14.33
2018-11-04T01:58:52.828Z,14.00
2018-11-04T02:01:21.968Z,14.03
2018-11-04T02:03:51.056Z,14.00
2018-11-04T02:06:20.160Z,15.23
2018-11-04T02:08:49.436Z,14.87
2018-11-04T02:11:18.524Z,13.97
2018-11-04T02:13:47.616Z,13.83
2018-11-04T02:16:16.823Z,13.50
2018-11-04T02:18:45.996Z,14.23
2018-11-04T02:21:15.053Z,14.53
2018-11-04T02:23:44.247Z,14.83
2018-11-04T02:26:13.344Z,14.03
2018-11-04T02:28:42.480Z,14.77
2018-11-04T02:31:11.751Z,13.45
2018-11-04T02:33:40.860Z,14.03
2018-11-04T02:36:10.049Z,14.43
2018-11-04T02:38:39.165Z,14.43
2018-11-04T02:41:08.436Z,15.87
2018-11-04T02:43:37.520Z,15.77
2018-11-04T02:46:07.068Z,16.83
2018-11-04T02:48:36.601Z,16.00
2018-11-04T02:51:05.660Z,14.87
2018-11-04T02:53:34.804Z,15.50
2018-11-04T02:56:04.118Z,14.67
2018-11-04T02:58:33.160Z,15.67
2018-11-04T03:01:02.597Z,16.63
2018-11-04T03:03:31.694Z,16.00
2018-11-04T03:06:00.828Z,15.63
2018-11-04T03:08:29.876Z,16.12
2018-11-04T03:10:58.932Z,15.67
2018-11-04T03:13:28.016Z,15.78
2018-11-04T03:15:57.089Z,15.57
2018-11-04T03:18:26.236Z,18.03
2018-11-04T03:20:55.353Z,19.30
2018-11-04T03:23:24.468Z,19.97
2018-11-04T03:25:53.675Z,19.63
2018-11-04T03:28:22.734Z,18.60
2018-11-04T03:30:51.815Z,18.83
2018-11-04T03:33:20.892Z,17.47
2018-11-04T03:35:49.965Z,17.93
2018-11-04T03:38:19.067Z,17.80
2018-11-04T03:40:48.161Z,17.13
2018-11-04T03:43:17.206Z,14.93
2018-11-04T03:45:46.298Z,17.42
2018-11-04T03:48:15.436Z,15.83
2018-11-04T03:50:44.581Z,15.47
2018-11-04T03:53:13.671Z,15.20
2018-11-04T03:55:42.750Z,14.60
2018-11-04T03:58:11.850Z,14.70
2018-11-04T04:00:41.002Z,14.17
2018-11-04T04:03:10.093Z,13.20
2018-11-04T04:05:39.252Z,13.87
2018-11-04T04:08:08.296Z,14.33
2018-11-04T04:10:37.358Z,14.40
2018-11-04T04:13:06.819Z,12.50
2018-11-04T04:15:36.013Z,14.07
2018-11-04T04:18:05.097Z,13.47
2018-11-04T04:20:34.232Z,13.13
2018-11-04T04:23:03.400Z,14.77
2018-11-04T04:25:32.513Z,13.43
2018-11-04T04:28:01.652Z,14.98
2018-11-04T04:30:30.723Z,14.80
2018-11-04T04:32:59.853Z,14.30
2018-11-04T04:35:28.923Z,13.90
2018-11-04T04:37:57.983Z,14.23
2018-11-04T04:40:27.198Z,14.27
2018-11-04T04:42:56.454Z,13.03
2018-11-04T04:45:25.647Z,13.67
2018-11-04T04:47:54.805Z,13.30
2018-11-04T04:50:23.930Z,12.90
2018-11-04T04:52:53.935Z,13.13
2018-11-04T04:55:23.032Z,13.60
2018-11-04T04:57:52.224Z,13.27
2018-11-04T05:00:21.321Z,11.23
2018-11-04T05:02:50.442Z,13.07
2018-11-04T05:05:19.546Z,13.13
2018-11-04T05:07:48.660Z,12.20
2018-11-04T05:10:17.757Z,10.98
2018-11-04T05:12:46.855Z,13.37
2018-11-04T05:15:16.130Z,13.37
2018-11-04T05:17:45.237Z,12.25
2018-11-04T05:20:15.461Z,13.38
2018-11-04T05:22:45.428Z,13.75
2018-11-04T05:25:15.440Z,13.85
2018-11-04T05:27:45.497Z,12.93
2018-11-04T05:30:14.625Z,12.37
2018-11-04T05:32:43.813Z,12.97
2018-11-04T05:35:13.038Z,13.23
2018-11-04T05:37:42.416Z,16.93
2018-11-04T05:40:11.529Z,16.67
2018-11-04T05:42:40.762Z,16.00
2018-11-04T05:45:10.133Z,13.73
2018-11-04T05:47:39.302Z,13.22
2018-11-04T05:50:08.417Z,13.43
2018-11-04T05:52:37.950Z,13.18
2018-11-04T05:55:07.933Z,12.77
2018-11-04T05:57:37.209Z,12.43
2018-11-04T06:00:09.994Z,13.97
2018-11-04T06:02:40.841Z,13.30
2018-11-04T06:05:12.124Z,15.23
2018-11-04T06:07:42.117Z,13.17
2018-11-04T06:10:11.848Z,15.90
2018-11-04T06:12:41.774Z,15.67
2018-11-04T06:15:11.168Z,17.10
2018-11-04T06:17:42.287Z,16.15
2018-11-04T06:20:14.153Z,16.20
2018-11-04T06:22:44.783Z,16.42
2018-11-04T06:25:15.872Z,16.10
2018-11-04T06:27:48.716Z,15.07
2018-11-04T06:30:19.094Z,15.70
2018-11-04T06:32:51.097Z,16.37
2018-11-04T06:35:20.812Z,14.70
2018-11-04T06:37:51.390Z,15.50
2018-11-04T06:40:21.667Z,15.63
2018-11-04T06:42:52.725Z,15.10
2018-11-04T06:45:22.771Z,15.10
2018-11-04T06:47:52.296Z,16.00
2018-11-04T06:50:21.817Z,15.67
2018-11-04T06:52:52.102Z,15.63
2018-11-04T06:55:23.484Z,17.40
2018-11-04T06:57:54.031Z,16.80
2018-11-04T07:00:26.651Z,17.37
2018-11-04T07:05:35.341Z,16.73
2018-11-04T07:08:05.482Z,18.45
2018-11-04T07:13:10.370Z,16.70
2018-11-04T07:15:39.662Z,17.63
2018-11-04T07:18:08.880Z,15.60
2018-11-04T07:20:38.193Z,16.70
2018-11-04T07:23:07.322Z,16.33
2018-11-04T07:25:36.561Z,15.73
2018-11-04T07:28:05.901Z,16.17
2018-11-04T07:30:35.167Z,16.37
2018-11-04T07:33:04.328Z,14.90
2018-11-04T07:35:33.852Z,16.35
2018-11-04T07:38:03.010Z,15.10
2018-11-04T07:40:32.242Z,15.40
2018-11-04T07:43:01.537Z,13.00
2018-11-04T07:45:30.775Z,15.03
2018-11-04T07:48:00.295Z,14.60
2018-11-04T07:50:29.599Z,14.17
2018-11-04T07:52:58.998Z,14.80
2018-11-04T07:55:28.085Z,14.77
2018-11-04T07:57:57.552Z,15.63
2018-11-04T08:00:27.153Z,15.30
2018-11-04T08:02:56.468Z,13.87
2018-11-04T08:05:25.639Z,14.57
2018-11-04T08:07:55.091Z,15.83
2018-11-04T08:10:24.220Z,15.65
2018-11-04T08:12:53.501Z,15.23
2018-11-04T08:15:22.792Z,16.37
2018-11-04T08:17:52.043Z,15.40
2018-11-04T08:20:21.312Z,14.35
2018-11-04T08:22:50.464Z,15.78
2018-11-04T08:25:19.670Z,15.90
2018-11-04T08:27:48.952Z,14.60
2018-11-04T08:30:18.532Z,13.53
2018-11-04T08:32:48.025Z,13.13
2018-11-04T08:35:17.167Z,13.80
2018-11-04T08:37:46.589Z,13.10
2018-11-04T08:40:15.863Z,12.73
2018-11-04T08:42:45.400Z,13.25
2018-11-04T08:45:14.693Z,12.95
2018-11-04T08:47:44.201Z,13.73
2018-11-04T08:50:13.657Z,12.77
2018-11-04T08:52:43.122Z,12.57
2018-11-04T08:55:12.353Z,12.93
2018-11-04T08:57:41.792Z,12.63
2018-11-04T09:00:14.400Z,12.75
2018-11-04T09:02:44.849Z,13.00
2018-11-04T09:05:14.081Z,11.50
2018-11-04T09:07:43.269Z,13.10
2018-11-04T09:10:14.753Z,13.33
2018-11-04T09:12:45.160Z,12.68
2018-11-04T09:15:14.791Z,12.80
2018-11-04T09:17:44.190Z,12.80
2018-11-04T09:20:15.010Z,12.13
2018-11-04T09:22:45.007Z,12.03
2018-11-04T09:25:14.573Z,13.00
2018-11-04T09:27:44.161Z,12.60
2018-11-04T09:30:14.570Z,12.70
2018-11-04T09:32:43.906Z,12.03
2018-11-04T09:35:13.700Z,11.67
2018-11-04T09:37:43.051Z,12.80
2018-11-04T09:40:13.440Z,11.17
2018-11-04T09:42:42.911Z,11.73
2018-11-04T09:45:12.339Z,12.90
2018-11-04T09:47:42.081Z,12.30
2018-11-04T09:50:12.270Z,12.80
2018-11-04T09:52:42.537Z,12.23
2018-11-04T09:55:12.614Z,12.63
2018-11-04T09:57:42.006Z,13.20
2018-11-04T10:00:12.671Z,15.70
2018-11-04T10:02:42.004Z,14.37
2018-11-04T10:05:12.004Z,14.90
2018-11-04T10:07:41.255Z,14.20
2018-11-04T10:10:12.887Z,16.13
2018-11-04T10:12:43.377Z,15.13
2018-11-04T10:15:12.589Z,15.40
2018-11-04T10:17:41.987Z,15.37
2018-11-04T10:20:12.445Z,15.48
2018-11-04T10:22:41.560Z,15.77
2018-11-04T10:25:11.781Z,15.20
2018-11-04T10:27:41.767Z,15.57
2018-11-04T10:30:13.697Z,16.37
2018-11-04T10:32:42.933Z,16.07
2018-11-04T10:40:12.186Z,15.27
2018-11-04T10:42:41.457Z,15.80
2018-11-04T10:45:11.495Z,16.10
2018-11-04T10:47:40.699Z,16.53
2018-11-04T10:50:11.500Z,15.87
2018-11-04T10:52:40.666Z,16.10
2018-11-04T10:55:11.269Z,16.50
2018-11-04T10:57:40.381Z,16.90
2018-11-04T11:00:15.724Z,17.45
2018-11-04T11:02:45.120Z,16.10
2018-11-04T11:05:14.327Z,16.77
2018-11-04T11:07:43.647Z,16.10
2018-11-04T11:10:12.797Z,14.80
2018-11-04T11:12:41.857Z,13.15
2018-11-04T11:15:11.666Z,12.53
2018-11-04T11:17:41.086Z,13.50
2018-11-04T11:20:11.445Z,12.90
2018-11-04T11:22:40.815Z,13.00
2018-11-04T11:25:10.562Z,13.22
2018-11-04T11:27:43.989Z,13.73
2018-11-04T11:30:19.742Z,12.70
2018-11-04T11:32:55.220Z,13.77
2018-11-04T11:35:26.156Z,14.43
2018-11-04T11:37:58.304Z,13.10
2018-11-04T11:40:30.090Z,13.60
2018-11-04T11:42:59.823Z,12.60
2018-11-04T11:45:29.484Z,13.13
2018-11-04T11:47:58.996Z,12.67
2018-11-04T11:50:28.498Z,13.43
2018-11-04T11:52:57.599Z,14.40
2018-11-04T11:55:27.456Z,13.07
2018-11-04T11:57:58.231Z,12.90
2018-11-04T12:00:27.866Z,12.60
2018-11-04T12:02:57.687Z,13.13
2018-11-04T12:05:27.546Z,13.37
2018-11-04T12:07:56.908Z,13.97
2018-11-04T12:10:26.381Z,12.75
2018-11-04T12:12:55.773Z,12.68
2018-11-04T12:15:25.257Z,12.97
2018-11-04T12:17:54.648Z,13.60
2018-11-04T12:20:25.174Z,13.40
2018-11-04T12:22:54.900Z,13.93
2018-11-04T12:25:24.696Z,14.30
2018-11-04T12:27:54.333Z,13.13
2018-11-04T12:30:24.852Z,12.93
2018-11-04T12:32:54.458Z,13.30
2018-11-04T12:35:23.987Z,12.20
2018-11-04T12:37:54.147Z,13.23
2018-11-04T12:40:23.732Z,13.15
2018-11-04T12:42:53.320Z,12.53
2018-11-04T12:45:22.954Z,12.53
2018-11-04T12:47:52.738Z,13.20
2018-11-04T12:50:22.225Z,13.40
2018-11-04T12:52:51.675Z,13.18
2018-11-04T12:55:21.646Z,12.87
2018-11-04T12:57:51.290Z,13.37
2018-11-04T13:00:20.624Z,13.70
2018-11-04T13:02:50.178Z,13.10
2018-11-04T13:05:19.620Z,13.68
2018-11-04T13:07:49.038Z,13.00
2018-11-04T13:10:18.261Z,13.37
2018-11-04T13:12:47.482Z,13.18
2018-11-04T13:15:16.785Z,14.23
2018-11-04T13:17:46.106Z,13.60
2018-11-04T13:20:15.469Z,13.60
2018-11-04T13:22:45.062Z,16.30
2018-11-04T13:25:14.843Z,17.43
2018-11-04T13:27:44.341Z,15.77
2018-11-04T13:30:14.652Z,15.00
2018-11-04T13:32:44.168Z,16.03
2018-11-04T13:35:13.590Z,17.33
2018-11-04T13:37:42.974Z,17.05
2018-11-04T13:40:12.756Z,16.70
2018-11-04T13:42:43.031Z,17.37
2018-11-04T13:45:12.856Z,16.77
2018-11-04T13:47:42.614Z,17.80
2018-11-04T13:50:13.373Z,16.83
2018-11-04T13:52:43.020Z,15.75
2018-11-04T13:55:12.700Z,15.77
2018-11-04T13:57:42.609Z,16.27
2018-11-04T14:00:14.332Z,16.80
2018-11-04T14:02:45.154Z,16.53
2018-11-04T14:05:16.359Z,16.13
2018-11-04T14:07:45.428Z,15.80
2018-11-04T14:10:15.836Z,16.97
2018-11-04T14:12:45.481Z,16.87
2018-11-04T14:15:15.885Z,16.77
2018-11-04T14:17:45.091Z,18.83
2018-11-04T14:20:14.235Z,17.93
2018-11-04T14:22:43.562Z,18.02
2018-11-04T14:25:13.172Z,17.27
2018-11-04T14:27:42.329Z,18.70
2018-11-04T14:30:14.220Z,17.40
2018-11-04T14:32:44.011Z,18.75
2018-11-04T14:35:13.237Z,18.57
2018-11-04T14:37:43.391Z,18.90
2018-11-04T14:40:14.224Z,19.47
2018-11-04T14:42:44.066Z,18.50
2018-11-04T14:45:14.220Z,20.43
2018-11-04T14:47:44.024Z,19.33
2018-11-04T14:50:15.893Z,20.03
2018-11-04T14:52:47.371Z,19.83
2018-11-04T14:55:16.366Z,19.27
2018-11-04T14:57:45.715Z,20.07
2018-11-04T15:00:16.028Z,22.07
2018-11-04T15:02:45.732Z,20.30
2018-11-04T15:05:15.324Z,21.82
2018-11-04T15:07:44.415Z,22.20
2018-11-04T15:10:14.740Z,21.47
2018-11-04T15:12:44.021Z,21.50
2018-11-04T15:15:14.848Z,22.85
2018-11-04T15:17:44.064Z,22.87
2018-11-04T15:20:13.512Z,21.47
2018-11-04T15:22:48.985Z,22.90
2018-11-04T15:25:19.716Z,23.07
2018-11-04T15:27:49.294Z,22.67
2018-11-04T15:30:18.677Z,21.47
2018-11-04T15:32:47.877Z,22.57
2018-11-04T15:35:17.706Z,23.07
2018-11-04T15:37:46.997Z,23.97
2018-11-04T15:40:18.029Z,24.67
2018-11-04T15:42:47.341Z,24.87
2018-11-04T15:45:17.478Z,23.23
2018-11-04T15:47:47.025Z,23.52
2018-11-04T15:50:17.824Z,25.00
2018-11-04T15:52:48.332Z,24.10
2018-11-04T15:55:17.808Z,25.00
2018-11-04T15:57:47.220Z,23.40
2018-11-04T16:00:16.480Z,24.45
2018-11-04T16:02:45.754Z,24.90
2018-11-04T16:05:15.290Z,24.33
2018-11-04T16:07:44.721Z,24.30
2018-11-04T16:10:14.379Z,24.93
2018-11-04T16:12:43.974Z,24.70
2018-11-04T16:15:14.839Z,25.57
2018-11-04T16:17:44.866Z,25.23
2018-11-04T16:20:15.206Z,26.47
2018-11-04T16:22:45.220Z,25.70
2018-11-04T16:25:14.699Z,25.27
2018-11-04T16:27:44.477Z,25.45
2018-11-04T16:30:15.071Z,25.95
2018-11-04T16:32:44.600Z,25.50
2018-11-04T16:35:14.758Z,24.97
2018-11-04T16:37:44.921Z,26.63
2018-11-04T16:40:14.164Z,26.63
2018-11-04T16:47:41.949Z,24.70
2018-11-04T16:50:12.254Z,24.12
2018-11-04T16:52:43.187Z,26.60
2018-11-04T16:55:12.886Z,26.53
2018-11-04T16:57:43.264Z,27.33
2018-11-04T17:00:13.110Z,27.47
2018-11-04T17:02:42.268Z,24.80
2018-11-04T17:05:12.637Z,27.37
2018-11-04T17:07:42.998Z,26.70
2018-11-04T17:10:12.205Z,27.20
2018-11-04T17:12:42.000Z,25.75
2018-11-04T17:15:13.117Z,26.57
2018-11-04T17:17:42.444Z,26.10
2018-11-04T17:20:15.140Z,27.65
2018-11-04T17:22:44.620Z,27.90
2018-11-04T17:25:13.811Z,29.13
2018-11-04T17:27:43.268Z,27.17
2018-11-04T17:30:15.445Z,28.17
2018-11-04T17:32:44.941Z,28.57
2018-11-04T17:35:15.877Z,26.90
2018-11-04T17:37:45.392Z,28.53
2018-11-04T17:40:16.060Z,27.52
2018-11-04T17:42:45.298Z,29.27
2018-11-04T17:45:16.271Z,27.20
2018-11-04T17:47:45.909Z,28.47
2018-11-04T17:50:19.415Z,27.43
2018-11-04T17:52:48.576Z,27.20
2018-11-04T17:55:17.767Z,28.15
2018-11-04T17:57:47.087Z,27.53
2018-11-04T18:00:17.128Z,25.30
2018-11-04T18:02:46.280Z,26.13
2018-11-04T18:05:15.456Z,26.57
2018-11-04T18:07:45.030Z,28.60
2018-11-04T18:10:15.309Z,25.40
2018-11-04T18:12:44.547Z,27.70
2018-11-04T18:15:14.592Z,26.33
2018-11-04T18:17:44.002Z,27.07
2018-11-04T18:20:13.374Z,26.57
2018-11-04T18:22:42.861Z,26.30
2018-11-04T18:25:12.918Z,26.10
2018-11-04T18:27:42.349Z,27.33
2018-11-04T18:30:15.631Z,27.20
2018-11-04T18:32:45.269Z,26.30
2018-11-04T18:35:14.444Z,27.73
2018-11-04T18:37:43.776Z,26.57
2018-11-04T18:40:14.319Z,26.07
2018-11-04T18:42:44.057Z,27.27
2018-11-04T18:45:14.710Z,27.23
2018-11-04T18:47:44.328Z,25.87
2018-11-04T18:50:14.396Z,27.30
2018-11-04T18:52:43.623Z,27.40
2018-11-04T18:55:13.130Z,26.57
2018-11-04T18:57:44.404Z,28.85
2018-11-04T19:00:15.751Z,28.60
2018-11-04T19:02:45.425Z,28.00
2018-11-04T19:05:14.627Z,27.70
2018-11-04T19:07:43.696Z,27.77
2018-11-04T19:10:14.209Z,28.07
2018-11-04T19:12:43.627Z,28.63
2018-11-04T19:15:12.702Z,27.07
2018-11-04T19:17:41.876Z,29.13
2018-11-04T19:20:12.632Z,27.77
2018-11-04T19:22:41.835Z,29.33
2018-11-04T19:25:12.107Z,28.67
2018-11-04T19:27:41.454Z,27.95
2018-11-04T19:30:13.318Z,30.70
2018-11-04T19:32:42.754Z,28.60
2018-11-04T19:35:12.576Z,27.75
2018-11-04T19:37:41.733Z,28.83
2018-11-04T19:40:11.988Z,28.43
2018-11-04T19:42:41.246Z,27.03
2018-11-04T19:45:10.277Z,26.60
2018-11-04T19:47:39.601Z,28.67
2018-11-04T19:50:10.887Z,29.07
2018-11-04T19:52:40.013Z,28.20
2018-11-04T19:55:09.680Z,28.47
2018-11-04T19:57:38.708Z,28.03
2018-11-04T20:00:10.430Z,28.10
2018-11-04T20:02:39.494Z,28.30
2018-11-04T20:05:10.273Z,26.10
2018-11-04T20:07:39.232Z,26.35
2018-11-04T20:10:12.297Z,27.83
2018-11-04T20:12:46.655Z,27.30
2018-11-04T20:15:15.913Z,28.37
2018-11-04T20:17:45.686Z,29.07
2018-11-04T20:20:29.385Z,27.53
2018-11-04T20:22:58.468Z,27.80
2018-11-04T20:25:32.762Z,28.17
2018-11-04T20:28:01.728Z,31.13
2018-11-04T20:30:30.799Z,29.47
2018-11-04T20:33:04.945Z,27.55
2018-11-04T20:35:34.034Z,26.20
2018-11-04T20:38:03.132Z,30.02
2018-11-04T20:40:37.565Z,27.73
2018-11-04T20:43:06.594Z,29.10
2018-11-04T20:45:35.681Z,28.67
2018-11-04T20:48:10.355Z,27.97
2018-11-04T20:50:44.761Z,28.55
2018-11-04T20:53:13.793Z,28.57
2018-11-04T20:55:47.992Z,28.80
2018-11-04T20:58:17.306Z,28.37
2018-11-04T21:00:46.189Z,29.43
2018-11-04T21:03:15.334Z,27.90
2018-11-04T21:05:44.371Z,28.47
2018-11-04T21:08:13.412Z,27.07
2018-11-04T21:10:42.405Z,28.67
2018-11-04T21:13:11.449Z,28.50
2018-11-04T21:15:40.521Z,28.37
2018-11-04T21:18:09.736Z,29.15
2018-11-04T21:20:38.852Z,28.27
2018-11-04T21:23:07.901Z,28.50
2018-11-04T21:25:37.097Z,29.43
2018-11-04T21:28:06.264Z,28.83
2018-11-04T21:30:35.086Z,28.90
2018-11-04T21:33:04.236Z,28.07
2018-11-04T21:35:33.360Z,29.40
2018-11-04T21:38:02.699Z,29.67
2018-11-04T21:40:31.590Z,27.40
2018-11-04T21:43:00.671Z,28.60
2018-11-04T21:45:29.691Z,28.53
2018-11-04T21:47:58.748Z,29.07
2018-11-04T21:50:27.902Z,28.87
2018-11-04T21:52:56.901Z,27.83
2018-11-04T21:55:26.100Z,26.60
2018-11-04T21:57:55.040Z,28.45
2018-11-04T22:00:24.124Z,27.93
2018-11-04T22:02:53.383Z,29.80
2018-11-04T22:05:22.219Z,26.97
2018-11-04T22:07:51.300Z,27.30
2018-11-04T22:10:20.386Z,28.30
2018-11-04T22:12:49.492Z,26.03
2018-11-04T22:15:18.560Z,26.87
2018-11-04T22:17:47.628Z,27.97
2018-11-04T22:20:16.754Z,26.60
2018-11-04T22:22:45.813Z,27.27
2018-11-04T22:25:14.931Z,27.57
2018-11-04T22:27:44.408Z,27.82
2018-11-04T22:30:16.365Z,28.57
2018-11-04T22:32:45.424Z,29.17
2018-11-04T22:35:14.632Z,28.87
2018-11-04T22:37:43.668Z,27.13
2018-11-04T22:40:13.309Z,29.23
2018-11-04T22:42:42.777Z,28.35
2018-11-04T22:45:13.248Z,28.03
2018-11-04T22:47:43.204Z,29.17
2018-11-04T22:50:15.430Z,28.17
2018-11-04T22:52:46.672Z,27.05
2018-11-04T22:55:15.769Z,28.60
2018-11-04T22:57:45.125Z,29.43
2018-11-04T23:00:19.484Z,26.70
2018-11-04T23:02:49.619Z,29.15
2018-11-04T23:05:24.044Z,28.53
2018-11-04T23:07:53.136Z,28.67
2018-11-04T23:10:22.160Z,29.82
2018-11-04T23:12:51.240Z,27.13
2018-11-04T23:15:20.354Z,28.03
2018-11-04T23:17:49.540Z,27.33
2018-11-04T23:20:18.661Z,26.97
2018-11-04T23:22:47.863Z,27.77
2018-11-04T23:25:16.959Z,27.27
2018-11-04T23:27:46.077Z,27.67
2018-11-04T23:30:17.380Z,27.57
2018-11-04T23:32:46.990Z,28.40
2018-11-04T23:35:16.098Z,27.73
2018-11-04T23:37:45.497Z,25.75
2018-11-04T23:40:14.676Z,26.07
2018-11-04T23:42:43.705Z,25.43
2018-11-04T23:45:13.875Z,26.53
2018-11-04T23:47:43.171Z,26.97
2018-11-04T23:50:14.988Z,27.00
2018-11-04T23:52:44.437Z,25.13
2018-11-04T23:55:14.220Z,25.90
2018-11-04T23:57:43.318Z,25.33
